KZC weather

Kampong Chhnang Airport
Kampong Chhnang, Kampong Chhnang, Cambodia

Public forecast

Using degrees Celsius for public forecast. Weather courtesy of forecast.io.

METAR (pilot weather report)

Closest report is Phnom Penh International Airport, 45.6 nm (84.5 km) SSE. Retrieved 2019/02/16 23:00 UTC (10 minutes ago):

VDPP 162300Z 19003KT 9000 FEW017 24/23 Q1012

TAF (pilot weather forecast)

Forecast is more than 6 hours old.

Closest forecast is Phnom Penh International Airport, 45.6 nm (84.5 km) SSE. Retrieved 2019/02/16 12:00 UTC (11 hours ago):

TAF VDPP 161100Z 1612/1706 17007KT 9999 SCT017